Time;durP1;ratioP1;P1;durP2;ratioP2;P2;SDS_P1;SDS_P2;PMS_P1;PMS_P2;Temp;Humidity;BMP_temperature;BMP_pressure;BME280_temperature;BME280_humidity;BME280_pressure;Samples;Min_cycle;Max_cycle;Signal;HPM_P1;HPM_P2
2022/02/04 00:08:59;;;;;;;25.43;9.70;;;;;;;-5.68;79.32;99462.73;1594637;90;21882;-69
2022/02/04 00:24:55;;;;;;;22.22;9.70;;;;;;;-5.91;79.45;99456.84;1681184;85;21002;-72
2022/02/04 00:27:27;;;;;;;19.70;9.13;;;;;;;-5.97;79.48;99462.23;1690984;85;20949;-72
2022/02/04 00:30:17;;;;;;;;;;;;;;;;;;;;;
2022/02/04 00:32:31;;;;;;;16.77;8.78;;;;;;;-6.06;79.76;99454.96;1680300;85;21036;-72
2022/02/04 00:35:13;;;;;;;22.42;8.50;;;;;;;-6.08;79.92;99453.00;1690591;85;21554;-68
2022/02/04 00:37:42;;;;;;;19.42;8.73;;;;;;;-6.11;80.00;99450.23;1688702;83;21005;-71
2022/02/04 00:40:12;;;;;;;19.17;8.38;;;;;;;-6.13;80.11;99452.30;1689662;84;21001;-69
2022/02/04 00:42:34;;;;;;;15.80;7.15;;;;;;;-6.15;80.15;99452.52;1689681;83;21041;-72
2022/02/04 00:45:15;;;;;;;16.65;8.65;;;;;;;-6.17;80.27;99451.06;1691126;84;20889;-72
2022/02/04 00:47:32;;;;;;;18.62;7.75;;;;;;;-6.17;80.41;99454.58;1688452;84;21959;-73
2022/02/04 00:50:19;;;;;;;14.73;7.28;;;;;;;-6.17;80.54;99457.27;1690836;84;21415;-72
2022/02/04 00:52:47;;;;;;;24.05;9.58;;;;;;;-6.17;80.61;99463.97;1688197;84;21458;-72
2022/02/04 01:06:24;;;;;;;25.25;9.05;;;;;;;-6.12;80.92;99467.35;1690948;83;20939;-67
2022/02/04 01:27:35;;;;;;;19.40;8.03;;;;;;;-6.16;80.80;99466.95;1672969;85;21120;-70
2022/02/04 01:30:05;;;;;;;20.60;9.38;;;;;;;-6.22;80.83;99471.83;1681099;85;21533;-70
2022/02/04 01:32:30;;;;;;;20.75;9.35;;;;;;;-6.28;80.90;99461.94;1705414;83;21498;-73
2022/02/04 01:34:57;;;;;;;25.65;9.58;;;;;;;-6.29;81.00;99465.64;1730400;83;20980;-70
2022/02/04 01:37:26;;;;;;;23.75;10.72;;;;;;;-6.31;81.01;99463.17;1730308;82;21446;-72
2022/02/04 01:39:55;;;;;;;30.90;11.65;;;;;;;-6.32;81.03;99458.85;1730303;82;20894;-72
2022/02/04 01:42:24;;;;;;;37.05;11.55;;;;;;;-6.36;80.93;99456.27;1730256;83;21568;-70
2022/02/04 01:44:51;;;;;;;33.92;12.80;;;;;;;-6.42;80.94;99460.63;1705795;83;20938;-72
2022/02/04 01:47:18;;;;;;;33.33;12.30;;;;;;;-6.48;80.97;99461.45;1730075;82;21052;-72
2022/02/04 01:49:44;;;;;;;28.98;11.20;;;;;;;-6.50;81.10;99463.54;1730283;83;21061;-68
2022/02/04 01:52:12;;;;;;;28.67;11.55;;;;;;;-6.55;81.06;99468.70;1731100;82;21054;-70
2022/02/04 01:54:40;;;;;;;25.20;9.60;;;;;;;-6.57;81.16;99473.44;1735212;82;20909;-72
2022/02/04 01:57:09;;;;;;;21.48;8.03;;;;;;;-6.59;81.25;99465.61;1735132;82;20850;-71
2022/02/04 01:59:35;;;;;;;17.17;7.30;;;;;;;-6.56;81.27;99465.69;1710764;82;21026;-72
2022/02/04 02:02:05;;;;;;;16.62;7.67;;;;;;;-6.60;81.14;99460.75;1735550;82;20834;-70
2022/02/04 02:04:34;;;;;;;18.62;8.23;;;;;;;-6.61;81.30;99451.07;1710575;82;21544;-71
2022/02/04 02:07:09;;;;;;;21.02;7.65;;;;;;;-6.61;81.32;99453.75;1735166;82;20961;-72
2022/02/04 02:09:44;;;;;;;16.70;7.45;;;;;;;-6.62;81.36;99449.94;1734585;82;20937;-72
2022/02/04 02:12:07;;;;;;;16.40;7.92;;;;;;;-6.59;81.36;99452.20;1734009;82;20948;-69
2022/02/04 02:14:35;;;;;;;21.10;7.35;;;;;;;-6.58;81.30;99453.03;1735244;82;20874;-70
2022/02/04 02:46:55;;;;;;;31.97;14.73;;;;;;;-6.40;81.17;99483.22;1735193;82;20917;-73
2022/02/04 03:02:12;;;;;;;44.03;15.85;;;;;;;-6.48;80.91;99497.14;1735309;82;20913;-72
2022/02/04 03:04:40;;;;;;;36.38;13.62;;;;;;;-6.45;80.91;99494.58;1735029;82;20889;-71
2022/02/04 03:07:08;;;;;;;39.30;13.85;;;;;;;-6.43;80.76;99493.83;1735263;82;20921;-72
2022/02/04 03:09:38;;;;;;;28.17;11.40;;;;;;;-6.44;80.70;99486.83;1735033;82;21020;-72
2022/02/04 03:12:07;;;;;;;31.97;11.08;;;;;;;-6.43;80.69;99491.15;1735629;82;21465;-73
2022/02/04 03:14:36;;;;;;;36.68;12.45;;;;;;;-6.47;80.39;99487.25;1735291;82;20972;-73
2022/02/04 03:17:05;;;;;;;34.18;12.40;;;;;;;-6.52;80.27;99486.55;1735735;82;20917;-72
2022/02/04 03:19:31;;;;;;;29.18;11.45;;;;;;;-6.61;80.10;99487.27;1735157;82;21422;-72
2022/02/04 03:22:04;;;;;;;35.98;12.03;;;;;;;-6.72;79.76;99483.88;1735127;82;21471;-72
2022/02/04 03:24:28;;;;;;;33.67;12.82;;;;;;;-6.89;79.57;99490.16;1746640;81;20959;-72
2022/02/04 03:27:02;;;;;;;34.45;13.95;;;;;;;-7.11;79.67;99489.81;1751840;81;21012;-72
2022/02/04 03:29:47;;;;;;;32.03;13.48;;;;;;;-7.20;79.94;99488.38;1751691;82;21485;-71
2022/02/04 03:32:08;;;;;;;39.63;13.78;;;;;;;-7.26;80.15;99483.81;1749562;82;21065;-72
2022/02/04 03:34:32;;;;;;;42.53;13.20;;;;;;;-7.33;80.25;99485.97;1751508;82;21140;-73
2022/02/04 03:36:59;;;;;;;36.70;12.07;;;;;;;-7.38;80.44;99483.08;1751754;82;20860;-72
2022/02/04 03:39:26;;;;;;;36.10;13.93;;;;;;;-7.37;80.59;99489.27;1751989;82;20972;-72
2022/02/04 03:41:52;;;;;;;34.70;13.72;;;;;;;-7.36;80.83;99494.92;1751761;82;20984;-72
2022/02/04 03:44:20;;;;;;;40.28;13.43;;;;;;;-7.37;80.86;99492.75;1752122;82;20860;-72
2022/02/04 03:46:49;;;;;;;39.45;13.75;;;;;;;-7.40;81.02;99494.50;1751860;81;21792;-72
2022/02/04 03:49:17;;;;;;;38.13;15.75;;;;;;;-7.42;81.16;99492.53;1751702;82;20912;-72
2022/02/04 03:51:43;;;;;;;31.40;11.95;;;;;;;-7.40;81.34;99492.35;1752092;81;21011;-71
2022/02/04 03:54:10;;;;;;;26.73;11.15;;;;;;;-7.38;81.46;99490.27;1751797;82;21437;-72
2022/02/04 03:56:37;;;;;;;21.85;10.32;;;;;;;-7.39;81.60;99492.15;1752347;82;21539;-73
2022/02/04 03:59:06;;;;;;;22.05;9.68;;;;;;;-7.47;81.62;99489.13;1751755;82;21130;-72
2022/02/04 04:01:36;;;;;;;23.05;10.05;;;;;;;-7.50;81.96;99494.89;1751710;82;21008;-72
2022/02/04 04:04:04;;;;;;;18.50;8.50;;;;;;;-7.55;82.01;99490.65;1751753;81;21086;-72
2022/02/04 04:06:31;;;;;;;19.52;9.45;;;;;;;-7.60;82.21;99495.27;1751858;82;20920;-70
2022/02/04 04:09:00;;;;;;;21.07;9.50;;;;;;;-7.61;82.47;99490.92;1726683;82;20872;-72
2022/02/04 04:11:29;;;;;;;24.67;9.68;;;;;;;-7.59;82.65;99498.25;1751808;82;21555;-73
2022/02/04 04:13:58;;;;;;;17.27;8.10;;;;;;;-7.59;82.69;99502.80;1751600;81;21030;-73
2022/02/04 04:16:28;;;;;;;18.25;8.15;;;;;;;-7.60;82.75;99505.14;1752232;82;21496;-72
2022/02/04 04:18:54;;;;;;;19.50;9.15;;;;;;;-7.62;82.73;99514.72;1752192;82;20939;-71
2022/02/04 04:21:22;;;;;;;17.12;8.25;;;;;;;-7.65;82.85;99516.97;1752387;82;20880;-72
2022/02/04 04:23:48;;;;;;;19.73;8.20;;;;;;;-7.69;83.05;99524.56;1752012;79;22351;-74
2022/02/04 04:26:17;;;;;;;18.65;8.18;;;;;;;-7.72;83.11;99520.45;1751829;82;20927;-73
2022/02/04 04:28:43;;;;;;;21.65;8.50;;;;;;;-7.72;83.25;99522.30;1751843;81;21070;-72
2022/02/04 04:31:12;;;;;;;17.23;7.95;;;;;;;-7.73;83.23;99516.64;1751920;82;20975;-72
2022/02/04 04:33:38;;;;;;;21.05;9.35;;;;;;;-7.74;83.35;99515.80;1752279;82;20984;-73
2022/02/04 04:36:06;;;;;;;19.85;9.08;;;;;;;-7.72;83.45;99519.11;1752092;82;21245;-72
2022/02/04 04:38:47;;;;;;;18.45;7.78;;;;;;;-7.68;83.44;99519.55;1751940;81;20873;-72
2022/02/04 04:44:24;;;;;;;36.60;16.27;;;;;;;-7.64;83.53;99523.98;1752559;82;28064;-73
2022/02/04 05:28:11;;;;;;;48.42;19.35;;;;;;;-7.57;82.76;99556.94;1728151;82;20910;-73
2022/02/04 05:30:21;;;;;;;47.03;18.37;;;;;;;-7.54;82.41;99563.23;1725058;83;22100;-72
2022/02/04 05:32:49;;;;;;;43.95;18.75;;;;;;;-7.54;82.14;99564.57;1728274;83;20870;-73
2022/02/04 05:35:20;;;;;;;52.83;22.75;;;;;;;-7.47;82.54;99564.63;1728305;82;20981;-73
2022/02/04 05:37:50;;;;;;;49.85;21.30;;;;;;;-7.36;82.38;99567.23;1728112;83;21461;-73
2022/02/04 05:40:20;;;;;;;52.05;19.55;;;;;;;-7.29;82.02;99563.23;1728250;83;20925;-72
2022/02/04 05:42:55;;;;;;;43.73;20.05;;;;;;;-7.25;81.73;99563.96;1728338;82;21713;-73
2022/02/04 05:45:22;;;;;;;44.05;19.70;;;;;;;-7.18;81.60;99562.64;1727438;83;20961;-74
2022/02/04 05:47:50;;;;;;;42.43;15.98;;;;;;;-7.16;81.23;99560.59;1728147;83;21430;-71
2022/02/04 05:50:23;;;;;;;42.00;16.70;;;;;;;-7.22;80.49;99569.45;1727988;82;21064;-70
2022/02/04 05:53:14;;;;;;;42.83;17.92;;;;;;;-7.35;80.10;99560.33;1725586;83;21033;-73
2022/02/04 05:55:53;;;;;;;43.65;17.73;;;;;;;-7.43;79.92;99563.69;1726403;83;21724;-72
2022/02/04 06:04:03;;;;;;;48.63;21.17;;;;;;;-7.57;80.11;99558.28;1728403;83;21494;-73
2022/02/04 06:22:19;;;;;;;63.92;28.65;;;;;;;-7.12;80.65;99568.55;1728611;83;21765;-71
2022/02/04 06:24:39;;;;;;;71.07;30.70;;;;;;;-7.04;80.45;99567.53;1739632;80;21049;-71
2022/02/04 06:27:08;;;;;;;72.60;27.30;;;;;;;-7.07;79.70;99572.46;1766368;81;20878;-71
2022/02/04 06:29:42;;;;;;;58.90;23.27;;;;;;;-7.22;79.33;99570.78;1723661;81;20989;-74
2022/02/04 06:32:16;;;;;;;61.70;23.57;;;;;;;-7.30;79.39;99565.08;1763895;81;20867;-72
2022/02/04 06:34:43;;;;;;;64.97;23.62;;;;;;;-7.27;80.11;99566.04;1767112;80;21126;-70
2022/02/04 06:37:10;;;;;;;63.02;23.45;;;;;;;-7.23;80.31;99559.23;1767149;81;21419;-69
2022/02/04 06:39:41;;;;;;;54.05;23.05;;;;;;;-7.13;80.73;99556.16;1767154;81;20981;-74
2022/02/04 06:42:08;;;;;;;65.05;21.82;;;;;;;-7.13;80.46;99557.50;1766884;81;21001;-74
2022/02/04 06:44:36;;;;;;;57.88;23.40;;;;;;;-7.19;80.37;99564.19;1767021;80;21457;-74
2022/02/04 06:47:07;;;;;;;59.00;24.07;;;;;;;-7.25;80.51;99565.84;1720388;81;21908;-74
2022/02/04 06:49:37;;;;;;;69.47;27.52;;;;;;;-7.25;80.96;99563.96;1765262;80;20878;-75
2022/02/04 06:52:07;;;;;;;55.65;23.92;;;;;;;-7.10;81.61;99562.98;1767537;79;20982;-73
2022/02/04 06:54:33;;;;;;;52.03;22.10;;;;;;;-6.94;81.87;99560.43;1766857;81;21013;-71
2022/02/04 06:57:02;;;;;;;55.33;22.60;;;;;;;-6.80;82.07;99560.45;1767162;80;20938;-73
2022/02/04 06:59:28;;;;;;;51.30;21.12;;;;;;;-6.61;82.36;99570.89;1766972;81;21148;-69
2022/02/04 07:01:58;;;;;;;52.55;21.70;;;;;;;-6.50;81.69;99574.83;1766920;80;20921;-70
2022/02/04 07:04:30;;;;;;;43.42;20.00;;;;;;;-6.46;81.58;99578.73;1766985;80;21112;-72
2022/02/04 07:07:00;;;;;;;39.88;17.75;;;;;;;-6.35;81.69;99578.64;1767084;80;20953;-73
2022/02/04 07:12:34;;;;;;;35.80;14.98;;;;;;;-6.14;81.08;99570.88;1767460;81;21451;-73
2022/02/04 07:20:05;;;;;;;49.90;19.00;;;;;;;-6.23;80.44;99568.91;1766909;81;21023;-73
2022/02/04 07:22:36;;;;;;;50.00;20.45;;;;;;;-6.24;80.51;99575.33;1767126;80;20886;-72
2022/02/04 07:25:07;;;;;;;41.55;19.37;;;;;;;-6.16;80.56;99575.62;1698499;82;21862;-73
2022/02/04 07:27:36;;;;;;;38.90;16.52;;;;;;;-6.12;80.39;99576.03;1751609;82;20987;-74
2022/02/04 07:30:08;;;;;;;36.90;16.52;;;;;;;-6.19;80.01;99567.98;1751607;82;21034;-72
2022/02/04 07:32:42;;;;;;;36.40;15.18;;;;;;;-6.24;80.14;99571.81;1751965;81;21031;-70
2022/02/04 07:43:23;;;;;;;32.48;14.20;;;;;;;-6.30;80.44;99564.09;1752285;82;20833;-73
2022/02/04 07:45:53;;;;;;;33.85;14.98;;;;;;;-6.24;80.50;99565.10;1751457;81;20881;-73
2022/02/04 07:48:20;;;;;;;28.85;13.98;;;;;;;-6.24;80.39;99567.28;1751875;82;21386;-73
2022/02/04 07:50:49;;;;;;;32.20;14.93;;;;;;;-6.28;80.04;99562.55;1751869;82;21938;-73
2022/02/04 07:53:17;;;;;;;31.30;14.10;;;;;;;-6.35;80.25;99570.06;1751966;82;21100;-73
2022/02/04 07:55:44;;;;;;;31.93;14.50;;;;;;;-6.35;80.53;99571.94;1751834;82;20971;-73
2022/02/04 07:58:11;;;;;;;34.58;15.28;;;;;;;-6.28;80.91;99566.06;1752131;82;20988;-72
2022/02/04 08:00:41;;;;;;;35.10;15.25;;;;;;;-6.20;80.63;99564.17;1701992;82;22415;-72
2022/02/04 08:05:52;;;;;;;32.50;14.85;;;;;;;-5.99;80.59;99565.78;1751741;82;20904;-73
2022/02/04 08:08:28;;;;;;;28.10;14.63;;;;;;;-5.84;80.50;99563.36;1751573;80;21051;-72
2022/02/04 08:11:18;;;;;;;34.92;14.10;;;;;;;-5.80;79.86;99560.03;1750949;82;20912;-73
2022/02/04 08:14:04;;;;;;;29.82;13.93;;;;;;;-5.69;80.14;99563.94;1748020;82;20932;-72
2022/02/04 08:22:24;;;;;;;35.20;17.27;;;;;;;-5.25;78.48;99562.00;1751821;81;21393;-72
2022/02/04 08:27:33;;;;;;;36.73;16.73;;;;;;;-5.27;78.58;99557.39;1751930;82;20923;-72
2022/02/04 08:32:37;;;;;;;37.35;14.98;;;;;;;-4.96;78.30;99557.09;1751654;82;20912;-74
2022/02/04 08:53:59;;;;;;;36.00;14.93;;;;;;;-4.43;74.71;99550.20;1752120;82;20988;-72
2022/02/04 08:56:32;;;;;;;40.50;17.27;;;;;;;-4.33;74.65;99552.42;1750660;82;21010;-72
2022/02/04 08:59:01;;;;;;;33.60;15.95;;;;;;;-4.17;75.04;99541.08;1750180;82;21444;-72
2022/02/04 09:01:33;;;;;;;34.85;15.00;;;;;;;-3.93;74.83;99544.47;1749834;82;20924;-71
2022/02/04 09:06:18;;;;;;;33.65;15.35;;;;;;;-3.50;74.26;99544.62;1752018;82;20948;-72
2022/02/04 09:09:00;;;;;;;36.88;15.65;;;;;;;-3.40;73.22;99550.81;1752205;80;21090;-73
2022/02/04 09:19:24;;;;;;;39.33;17.32;;;;;;;-2.98;71.72;99548.70;1751931;82;20837;-70
2022/02/04 09:22:42;;;;;;;31.17;14.33;;;;;;;-2.81;71.49;99543.47;1752034;82;21393;-71
2022/02/04 09:24:22;;;;;;;31.48;15.03;;;;;;;-2.62;71.07;99543.40;1742694;82;20976;-72
2022/02/04 09:26:52;;;;;;;23.80;11.28;;;;;;;-2.41;70.53;99546.61;1764529;80;21077;-71
2022/02/04 09:29:21;;;;;;;23.80;12.60;;;;;;;-2.24;69.81;99544.87;1766885;80;20966;-72
2022/02/04 09:31:52;;;;;;;25.45;11.28;;;;;;;-2.17;68.37;99550.16;1719822;81;20929;-71
2022/02/04 09:34:20;;;;;;;27.15;12.65;;;;;;;-2.20;67.80;99544.68;1765599;80;21403;-69
2022/02/04 09:36:48;;;;;;;27.98;12.68;;;;;;;-2.32;66.70;99543.87;1736866;82;21490;-70
2022/02/04 09:39:15;;;;;;;24.75;11.88;;;;;;;-2.37;67.26;99540.50;1736886;82;21005;-68
2022/02/04 09:41:44;;;;;;;23.22;11.12;;;;;;;-2.29;66.44;99543.40;1741998;82;21092;-70
2022/02/04 09:44:12;;;;;;;26.37;12.40;;;;;;;-2.43;65.59;99540.61;1742608;82;20953;-70
2022/02/04 09:46:40;;;;;;;26.65;11.78;;;;;;;-2.37;65.76;99538.34;1743116;81;21540;-70
2022/02/04 09:49:15;;;;;;;26.70;12.05;;;;;;;-2.33;65.16;99539.51;1735466;81;21048;-71
2022/02/04 10:04:20;;;;;;;24.30;11.75;;;;;;;-2.36;65.19;99537.28;1741510;81;21035;-70
2022/02/04 10:07:51;;;;;;;21.65;10.98;;;;;;;-1.81;63.50;99522.29;1740518;82;21057;-70
2022/02/04 10:15:41;;;;;;;21.90;11.33;;;;;;;-1.91;61.56;99513.44;1742099;82;21076;-70
2022/02/04 10:18:12;;;;;;;22.50;10.48;;;;;;;-1.88;62.22;99515.14;1734748;81;20946;-72
2022/02/04 10:20:42;;;;;;;20.57;9.58;;;;;;;-1.68;62.34;99515.79;1742062;82;21020;-71
2022/02/04 10:23:11;;;;;;;19.40;8.90;;;;;;;-1.54;61.17;99509.59;1740163;82;21533;-71
2022/02/04 10:25:43;;;;;;;19.10;10.03;;;;;;;-1.52;61.29;99512.33;1743340;82;21552;-72
2022/02/04 10:28:29;;;;;;;23.75;9.93;;;;;;;-1.39;61.19;99514.48;1741326;82;21072;-69
2022/02/04 10:31:21;;;;;;;19.85;10.15;;;;;;;-1.37;60.20;99514.55;1742168;82;21040;-72
2022/02/04 10:34:23;;;;;;;19.45;9.35;;;;;;;-1.36;60.22;99516.69;1744187;82;21148;-70
2022/02/04 10:36:48;;;;;;;19.00;9.35;;;;;;;-1.42;58.86;99519.02;1736816;82;21175;-71
2022/02/04 10:39:54;;;;;;;15.63;8.55;;;;;;;-1.60;59.63;99512.19;1740406;82;21304;-71
2022/02/04 10:42:30;;;;;;;14.23;7.45;;;;;;;-1.59;59.92;99512.47;1741532;82;21094;-71
2022/02/04 10:47:55;;;;;;;17.67;8.28;;;;;;;-1.24;59.71;99508.02;1744574;81;21114;-69
2022/02/04 11:04:19;;;;;;;21.30;9.60;;;;;;;-0.93;57.99;99482.58;1760240;80;21036;-70
2022/02/04 11:09:49;;;;;;;22.45;10.40;;;;;;;-0.78;57.28;99472.01;1737875;80;21004;-70
2022/02/04 11:21:41;;;;;;;18.20;8.18;;;;;;;-0.86;56.99;99480.53;1756373;80;33644;-70
2022/02/04 11:31:16;;;;;;;18.75;9.38;;;;;;;-0.53;55.72;99459.94;1732496;82;21033;-70
2022/02/04 11:34:24;;;;;;;15.85;8.70;;;;;;;-0.58;55.14;99463.12;1718649;81;21506;-71
2022/02/04 11:54:33;;;;;;;17.82;9.08;;;;;;;-0.29;54.56;99452.17;1731311;82;21430;-71
2022/02/04 11:57:06;;;;;;;15.90;8.45;;;;;;;-0.30;54.48;99449.98;1734488;82;20962;-72
2022/02/04 11:59:38;;;;;;;16.40;7.87;;;;;;;-0.37;53.81;99454.23;1732699;82;21067;-67
2022/02/04 12:02:29;;;;;;;15.65;8.45;;;;;;;-0.45;54.03;99443.82;1733483;81;21146;-71
2022/02/04 12:05:17;;;;;;;23.77;9.90;;;;;;;-0.53;54.30;99445.05;1733232;82;21069;-71
2022/02/04 12:07:58;;;;;;;19.10;10.32;;;;;;;-0.54;54.59;99448.00;1732202;82;21134;-70
2022/02/04 12:10:29;;;;;;;16.93;9.13;;;;;;;-0.33;55.14;99445.59;1732299;82;21060;-72
2022/02/04 12:13:00;;;;;;;14.18;7.92;;;;;;;-0.29;54.01;99450.26;1728966;82;21057;-68
2022/02/04 12:15:33;;;;;;;17.87;7.78;;;;;;;-0.38;53.70;99448.54;1733008;82;21142;-70
2022/02/04 12:18:07;;;;;;;16.75;7.75;;;;;;;-0.37;53.98;99444.75;1730450;82;20993;-71
2022/02/04 12:20:58;;;;;;;21.07;9.40;;;;;;;-0.23;54.08;99448.98;1729314;82;21197;-71
2022/02/04 12:23:33;;;;;;;17.95;8.23;;;;;;;-0.19;53.33;99459.09;1692813;83;21036;-69
2022/02/04 12:26:20;;;;;;;15.00;8.20;;;;;;;-0.22;53.50;99456.05;1716561;81;21122;-72
2022/02/04 12:29:07;;;;;;;15.05;7.50;;;;;;;-0.19;53.31;99451.48;1738782;82;21525;-71
2022/02/04 12:31:45;;;;;;;20.62;9.58;;;;;;;-0.30;52.71;99447.28;1740286;82;20985;-72
2022/02/04 12:34:17;;;;;;;16.40;8.05;;;;;;;-0.51;53.54;99446.15;1736988;82;21100;-71
2022/02/04 12:36:55;;;;;;;14.98;8.60;;;;;;;-0.40;53.76;99449.31;1743148;80;21322;-70
2022/02/04 12:39:26;;;;;;;15.75;7.40;;;;;;;-0.41;52.72;99453.63;1741798;82;20949;-71
2022/02/04 12:42:00;;;;;;;19.17;9.30;;;;;;;-0.65;53.16;99461.93;1739214;82;21151;-70
2022/02/04 12:44:40;;;;;;;22.13;10.55;;;;;;;-0.62;53.77;99455.50;1742660;81;21466;-69
2022/02/04 12:47:13;;;;;;;21.25;9.30;;;;;;;-0.47;53.78;99455.43;1743020;81;21055;-68
2022/02/04 12:49:54;;;;;;;12.75;6.35;;;;;;;-0.38;53.54;99453.95;1711172;82;21016;-73
2022/02/04 12:52:41;;;;;;;13.10;7.83;;;;;;;-0.20;53.60;99451.19;1740440;82;20996;-69
2022/02/04 12:57:43;;;;;;;11.68;6.58;;;;;;;-0.05;52.24;99445.97;1742937;81;21079;-71
2022/02/04 13:03:07;;;;;;;12.33;6.97;;;;;;;-0.14;52.27;99456.42;1739865;82;21004;-72
2022/02/04 13:11:11;;;;;;;17.15;8.28;;;;;;;-0.53;51.49;99451.02;1742492;81;21055;-68
2022/02/04 13:13:50;;;;;;;14.03;8.20;;;;;;;-0.66;52.08;99449.45;1739426;82;21001;-71
2022/02/04 13:16:27;;;;;;;16.77;7.97;;;;;;;-0.66;51.89;99453.50;1739499;82;21064;-69
2022/02/04 13:19:02;;;;;;;14.83;7.30;;;;;;;-0.77;52.38;99446.58;1738732;82;21624;-71
2022/02/04 13:21:30;;;;;;;14.78;7.60;;;;;;;-0.82;52.29;99449.75;1744701;80;21053;-71
2022/02/04 13:24:06;;;;;;;15.05;8.30;;;;;;;-0.85;52.72;99449.70;1742711;82;21039;-72
2022/02/04 13:26:34;;;;;;;13.98;7.62;;;;;;;-0.81;52.84;99452.21;1739687;82;20965;-72
2022/02/04 13:29:05;;;;;;;21.70;9.00;;;;;;;-0.82;52.79;99450.55;1746822;82;20977;-69
2022/02/04 13:31:36;;;;;;;23.90;10.28;;;;;;;-0.76;53.06;99452.30;1746301;82;21017;-70
2022/02/04 13:34:03;;;;;;;18.45;8.05;;;;;;;-0.58;53.01;99455.80;1748154;82;21182;-69
2022/02/04 13:36:36;;;;;;;22.60;10.55;;;;;;;-0.38;52.90;99450.42;1737410;82;21008;-71
2022/02/04 13:39:42;;;;;;;16.35;9.18;;;;;;;-0.13;52.76;99455.37;1748747;82;21009;-71
2022/02/04 13:42:15;;;;;;;16.77;8.70;;;;;;;0.29;52.44;99455.07;1743608;82;21068;-72
2022/02/04 13:47:48;;;;;;;11.80;6.78;;;;;;;1.02;50.42;99453.92;1744617;82;21489;-72
2022/02/04 13:55:32;;;;;;;10.85;7.10;;;;;;;1.49;46.72;99454.80;1748494;82;21040;-71
2022/02/04 13:58:29;;;;;;;13.20;6.62;;;;;;;1.23;47.44;99450.56;1743954;82;26844;-70
2022/02/04 14:03:45;;;;;;;11.12;6.87;;;;;;;1.60;47.70;99450.27;1734442;80;21148;-71
2022/02/04 14:06:24;;;;;;;16.00;7.58;;;;;;;2.14;47.39;99449.20;1761091;80;21040;-72
2022/02/04 14:11:38;;;;;;;14.18;6.70;;;;;;;2.10;44.81;99454.88;1756062;80;21541;-71
2022/02/04 14:14:07;;;;;;;9.63;6.15;;;;;;;1.85;45.41;99444.70;1766395;80;21118;-71
2022/02/04 14:16:36;;;;;;;10.95;6.75;;;;;;;1.53;44.86;99455.92;1762117;80;21039;-71
2022/02/04 14:19:05;;;;;;;12.33;6.45;;;;;;;1.05;45.40;99455.28;1765926;80;20969;-71
2022/02/04 14:21:35;;;;;;;11.65;6.50;;;;;;;0.64;46.02;99453.83;1760926;80;21012;-71
2022/02/04 14:24:12;;;;;;;15.10;7.37;;;;;;;0.52;47.23;99461.27;1765905;80;20953;-71
2022/02/04 14:26:45;;;;;;;15.93;7.42;;;;;;;0.82;47.91;99466.77;1759830;80;21283;-71
2022/02/04 14:29:39;;;;;;;16.95;7.92;;;;;;;1.12;47.98;99462.69;1759546;80;21023;-71
2022/02/04 14:37:05;;;;;;;16.48;8.85;;;;;;;1.16;46.87;99478.72;1763344;80;21465;-74
2022/02/04 14:53:38;;;;;;;18.12;8.78;;;;;;;-0.60;47.84;99487.73;1764053;80;22182;-72
2022/02/04 14:59:06;;;;;;;20.88;8.53;;;;;;;-1.38;49.80;99499.36;1757303;80;20439;-73
2022/02/04 15:03:55;;;;;;;25.82;10.18;;;;;;;-1.53;50.81;99495.84;1761387;80;20985;-72
2022/02/04 15:06:17;;;;;;;23.75;10.72;;;;;;;-1.60;51.41;99501.90;1753714;80;21610;-72
2022/02/04 15:08:44;;;;;;;19.82;9.25;;;;;;;-1.72;51.74;99508.16;1761564;80;21043;-74
2022/02/04 15:11:22;;;;;;;24.27;10.98;;;;;;;-1.79;52.31;99516.92;1759221;80;21031;-72
2022/02/04 15:13:48;;;;;;;31.90;12.98;;;;;;;-1.86;52.71;99515.70;1737860;80;21799;-73
2022/02/04 15:16:19;;;;;;;26.10;12.53;;;;;;;-1.99;53.06;99515.44;1759196;80;21012;-72
2022/02/04 15:18:49;;;;;;;29.85;13.35;;;;;;;-2.08;53.60;99514.14;1763990;80;21478;-72
2022/02/04 15:21:20;;;;;;;37.45;15.98;;;;;;;-2.20;54.17;99512.28;1729070;80;20996;-73
2022/02/04 15:23:52;;;;;;;36.08;15.25;;;;;;;-2.30;54.47;99522.84;1761882;80;21080;-74
2022/02/04 15:26:27;;;;;;;29.35;14.20;;;;;;;-2.42;54.79;99522.03;1729795;80;20965;-72
2022/02/04 15:29:01;;;;;;;35.92;14.85;;;;;;;-2.53;55.36;99520.95;1735077;82;21528;-73
2022/02/04 15:31:55;;;;;;;30.88;13.18;;;;;;;-2.64;55.82;99522.05;1721880;81;21111;-73
2022/02/04 15:34:20;;;;;;;28.05;13.00;;;;;;;-2.69;56.26;99515.17;1716474;83;21043;-73
2022/02/04 15:36:49;;;;;;;27.80;13.80;;;;;;;-2.74;56.58;99516.39;1718458;83;21112;-70
2022/02/04 15:39:26;;;;;;;27.15;12.82;;;;;;;-2.78;56.93;99520.63;1719577;83;21426;-69
2022/02/04 15:41:55;;;;;;;29.90;13.75;;;;;;;-2.83;57.00;99521.30;1718636;83;20989;-73
2022/02/04 15:44:37;;;;;;;31.80;14.07;;;;;;;-2.91;56.97;99519.77;1720262;83;21127;-72
2022/02/04 15:49:43;;;;;;;38.65;16.97;;;;;;;-3.04;57.38;99520.80;1720005;83;20946;-72
2022/02/04 16:03:16;;;;;;;58.33;24.92;;;;;;;-3.38;58.77;99520.42;1729867;83;21032;-74
2022/02/04 16:04:48;;;;;;;54.23;23.38;;;;;;;-3.48;59.07;99525.01;1696037;83;21041;-73
2022/02/04 16:07:21;;;;;;;53.73;22.60;;;;;;;-3.55;59.33;99523.75;1729935;82;20961;-73
2022/02/04 16:09:55;;;;;;;54.70;24.05;;;;;;;-3.64;59.78;99523.73;1729425;83;20969;-73
2022/02/04 16:12:36;;;;;;;57.15;25.10;;;;;;;-3.69;60.18;99529.30;1730059;83;20942;-73
2022/02/04 16:15:03;;;;;;;73.52;30.30;;;;;;;-3.71;60.24;99522.47;1726246;83;21426;-73
2022/02/04 16:17:36;;;;;;;69.45;30.82;;;;;;;-3.78;60.43;99519.86;1728090;83;21067;-73
2022/02/04 16:20:16;;;;;;;77.25;35.78;;;;;;;-3.85;60.89;99517.75;1679588;85;21138;-72
2022/02/04 16:22:58;;;;;;;86.00;33.78;;;;;;;-3.88;61.04;99519.04;1706342;83;21117;-73
2022/02/04 16:25:18;;;;;;;74.10;30.62;;;;;;;-3.89;60.99;99522.80;1726591;83;21529;-73
2022/02/04 16:30:11;;;;;;;68.22;28.47;;;;;;;-4.00;61.10;99523.52;1729971;83;20965;-71
2022/02/04 16:32:39;;;;;;;57.05;26.00;;;;;;;-4.08;61.14;99525.98;1730594;83;21545;-73
2022/02/04 16:35:09;;;;;;;54.15;25.15;;;;;;;-4.15;61.21;99530.09;1730341;83;20930;-71
2022/02/04 16:37:37;;;;;;;68.72;28.52;;;;;;;-4.24;61.44;99530.89;1705611;83;21075;-72
2022/02/04 16:40:16;;;;;;;69.87;28.40;;;;;;;-4.36;61.79;99534.00;1730538;82;21056;-72
2022/02/04 16:42:45;;;;;;;72.78;31.45;;;;;;;-4.51;62.19;99531.13;1705512;83;20958;-73
2022/02/04 16:45:23;;;;;;;73.60;31.20;;;;;;;-4.60;62.46;99531.09;1725998;82;20902;-72
2022/02/04 16:47:52;;;;;;;70.85;29.35;;;;;;;-4.68;62.45;99526.82;1729285;83;21175;-72
2022/02/04 16:50:23;;;;;;;62.35;28.90;;;;;;;-4.72;62.46;99529.63;1730288;83;20918;-72
2022/02/04 16:52:57;;;;;;;77.70;32.67;;;;;;;-4.79;62.67;99532.37;1730215;83;21005;-72
2022/02/04 16:55:27;;;;;;;75.37;30.10;;;;;;;-4.89;63.21;99532.34;1730508;83;20961;-72
2022/02/04 16:57:57;;;;;;;77.10;35.48;;;;;;;-4.91;63.45;99541.14;1730557;83;20929;-72
2022/02/04 17:00:28;;;;;;;86.63;35.75;;;;;;;-4.92;63.63;99542.70;1705007;83;20965;-73
2022/02/04 17:03:01;;;;;;;94.67;38.95;;;;;;;-4.94;63.65;99544.27;1730452;83;21700;-74
2022/02/04 17:05:36;;;;;;;107.27;42.60;;;;;;;-4.96;63.75;99545.00;1730360;83;20982;-72
2022/02/04 17:08:05;;;;;;;95.47;41.35;;;;;;;-4.99;63.86;99545.44;1729152;83;21481;-71
2022/02/04 17:10:30;;;;;;;102.78;41.30;;;;;;;-5.05;63.98;99547.66;1727591;83;21064;-73
2022/02/04 17:13:03;;;;;;;70.90;30.95;;;;;;;-5.11;64.08;99545.30;1730772;82;21097;-74
2022/02/04 17:15:35;;;;;;;109.05;39.70;;;;;;;-5.22;64.34;99545.45;1730508;82;20998;-70
2022/02/04 17:18:05;;;;;;;108.32;44.85;;;;;;;-5.30;64.54;99545.19;1705648;83;20929;-73
2022/02/04 17:20:35;;;;;;;102.07;42.27;;;;;;;-5.38;64.68;99548.95;1730570;82;21548;-73
2022/02/04 17:23:06;;;;;;;106.12;43.30;;;;;;;-5.42;64.65;99553.61;1730337;83;21005;-72
2022/02/04 17:25:34;;;;;;;123.70;43.38;;;;;;;-5.48;64.68;99553.96;1730438;82;21131;-73
2022/02/04 17:28:02;;;;;;;126.65;45.05;;;;;;;-5.57;64.74;99551.19;1730413;81;20866;-72
2022/02/04 17:30:32;;;;;;;135.72;48.52;;;;;;;-5.69;65.15;99550.52;1730482;83;21531;-72
2022/02/04 17:33:01;;;;;;;129.30;47.62;;;;;;;-5.71;65.37;99545.06;1730406;83;20997;-72
2022/02/04 17:35:27;;;;;;;138.47;48.87;;;;;;;-5.74;65.32;99549.81;1705947;83;21064;-73
2022/02/04 17:38:01;;;;;;;109.95;43.95;;;;;;;-5.76;65.40;99551.87;1730318;82;21206;-73